createdAt,value
2024-02-08T00:00:01.139Z,9.42
2024-02-08T00:03:08.912Z,9.34
2024-02-08T00:06:10.693Z,9.18
2024-02-08T00:09:12.447Z,9.17
2024-02-08T00:12:14.256Z,9.22
2024-02-08T00:15:17.202Z,9.02
2024-02-08T00:18:19.876Z,9.00
2024-02-08T00:21:21.792Z,9.10
2024-02-08T00:24:23.507Z,9.09
2024-02-08T00:27:25.342Z,8.96
2024-02-08T00:30:26.997Z,9.17
2024-02-08T00:33:28.820Z,8.86
2024-02-08T00:36:30.636Z,9.22
2024-02-08T00:39:33.408Z,9.29
2024-02-08T00:42:35.082Z,9.10
2024-02-08T00:45:36.839Z,8.79
2024-02-08T00:48:41.972Z,8.99
2024-02-08T00:51:43.844Z,8.64
2024-02-08T00:54:45.537Z,9.12
2024-02-08T00:57:48.082Z,9.12
2024-02-08T01:00:49.917Z,9.15
2024-02-08T01:03:51.823Z,9.23
2024-02-08T01:06:53.620Z,9.28
2024-02-08T01:09:55.324Z,8.98
2024-02-08T01:12:58.161Z,9.10
2024-02-08T01:15:59.893Z,9.06
2024-02-08T01:19:01.755Z,8.75
2024-02-08T01:22:04.450Z,8.81
2024-02-08T01:25:06.322Z,8.36
2024-02-08T01:28:08.622Z,8.52
2024-02-08T01:31:10.393Z,8.45
2024-02-08T01:34:12.469Z,8.63
2024-02-08T01:37:16.322Z,8.65
2024-02-08T01:40:19.316Z,8.78
2024-02-08T01:43:21.137Z,8.72
2024-02-08T01:46:23.039Z,8.73
2024-02-08T01:49:28.108Z,8.70
2024-02-08T01:52:30.067Z,8.71
2024-02-08T01:55:34.842Z,8.64
2024-02-08T01:58:37.354Z,8.64
2024-02-08T02:01:47.781Z,8.49
2024-02-08T02:04:50.024Z,8.54
2024-02-08T02:07:52.047Z,8.48
2024-02-08T02:11:26.176Z,8.36
2024-02-08T02:14:32.373Z,8.37
2024-02-08T02:17:34.153Z,8.41
2024-02-08T02:20:36.501Z,8.46
2024-02-08T02:23:38.479Z,8.42
2024-02-08T02:26:41.267Z,8.65
2024-02-08T02:29:45.697Z,8.38
2024-02-08T02:32:48.673Z,8.51
2024-02-08T02:35:50.848Z,8.46
2024-02-08T02:38:52.977Z,8.61
2024-02-08T02:41:54.908Z,8.91
2024-02-08T02:45:01.378Z,8.78
2024-02-08T02:48:03.891Z,8.65
2024-02-08T02:51:06.039Z,8.84
2024-02-08T02:54:07.780Z,8.95
2024-02-08T02:57:12.561Z,9.02
2024-02-08T03:00:25.334Z,9.13
2024-02-08T03:03:28.061Z,8.97
2024-02-08T03:06:29.822Z,9.14
2024-02-08T03:09:32.905Z,9.17
2024-02-08T03:12:34.741Z,8.84
2024-02-08T03:15:38.422Z,8.77
2024-02-08T03:18:44.490Z,8.71
2024-02-08T03:21:46.498Z,8.78
2024-02-08T03:24:50.625Z,8.44
2024-02-08T03:27:53.137Z,8.63
2024-02-08T03:30:57.395Z,8.63
2024-02-08T03:33:59.390Z,8.52
2024-02-08T03:37:01.343Z,8.70
2024-02-08T03:40:04.909Z,8.71
2024-02-08T03:43:07.681Z,8.61
2024-02-08T03:46:09.386Z,8.55
2024-02-08T03:49:12.412Z,8.44
2024-02-08T03:52:14.186Z,8.48
2024-02-08T03:55:17.920Z,8.38
2024-02-08T03:58:25.021Z,8.27
2024-02-08T04:01:27.238Z,8.30
2024-02-08T04:04:36.358Z,8.11
2024-02-08T04:07:58.413Z,8.01
2024-02-08T04:11:01.657Z,8.11
2024-02-08T04:14:22.946Z,8.12
2024-02-08T04:17:43.502Z,7.93
2024-02-08T04:21:04.792Z,7.89
2024-02-08T04:24:26.183Z,8.08
2024-02-08T04:27:47.704Z,8.01
2024-02-08T04:31:09.174Z,8.00
2024-02-08T04:34:31.584Z,8.20
2024-02-08T04:37:52.753Z,7.92
2024-02-08T04:41:13.315Z,8.14
2024-02-08T04:44:33.621Z,8.16
2024-02-08T04:47:54.278Z,8.21
2024-02-08T04:51:14.994Z,8.63
2024-02-08T04:54:18.279Z,8.31
2024-02-08T04:57:20.541Z,8.56
2024-02-08T05:00:24.045Z,8.45
2024-02-08T05:03:26.840Z,8.73
2024-02-08T05:06:28.920Z,8.66
2024-02-08T05:09:32.719Z,8.67
2024-02-08T05:12:34.459Z,8.69
2024-02-08T05:15:37.218Z,8.80
2024-02-08T05:18:38.893Z,8.86
2024-02-08T05:21:43.135Z,8.86
2024-02-08T05:24:45.226Z,8.84
2024-02-08T05:27:48.660Z,8.94
2024-02-08T05:30:50.394Z,9.04
2024-02-08T05:33:53.501Z,9.05
2024-02-08T05:36:57.050Z,8.66
2024-02-08T05:40:01.904Z,8.81
2024-02-08T05:43:05.969Z,8.59
2024-02-08T05:46:11.064Z,8.56
2024-02-08T05:49:15.215Z,8.49
2024-02-08T05:52:17.689Z,8.51
2024-02-08T05:55:21.017Z,8.37
2024-02-08T05:58:22.890Z,8.14
2024-02-08T06:01:25.713Z,8.48
2024-02-08T06:04:36.788Z,8.53
2024-02-08T06:07:39.264Z,8.63
2024-02-08T06:10:47.275Z,8.64
2024-02-08T06:14:01.405Z,8.41
2024-02-08T06:17:07.466Z,8.55
2024-02-08T06:20:11.293Z,8.77
2024-02-08T06:23:39.708Z,8.70
2024-02-08T06:26:44.823Z,8.70
2024-02-08T06:29:47.999Z,8.74
2024-02-08T06:32:58.949Z,8.84
2024-02-08T06:36:00.734Z,8.94
2024-02-08T06:39:21.791Z,9.07
2024-02-08T06:42:39.637Z,9.14
2024-02-08T06:45:53.314Z,9.02
2024-02-08T06:49:33.574Z,9.04
2024-02-08T06:52:54.141Z,9.25
2024-02-08T06:56:16.564Z,9.31
2024-02-08T06:59:38.202Z,9.10
2024-02-08T07:02:58.577Z,9.49
2024-02-08T07:06:18.908Z,9.60
2024-02-08T07:09:39.240Z,10.06
2024-02-08T07:12:59.830Z,10.06
2024-02-08T07:16:20.048Z,9.92
2024-02-08T07:19:40.433Z,9.95
2024-02-08T07:23:00.935Z,11.00
2024-02-08T07:26:21.047Z,11.28
2024-02-08T07:29:41.411Z,13.27
2024-02-08T07:33:01.956Z,13.88
2024-02-08T07:36:23.236Z,14.95
2024-02-08T07:39:37.071Z,14.36
2024-02-08T07:42:45.161Z,13.74
2024-02-08T07:45:50.120Z,13.21
2024-02-08T07:48:59.870Z,12.86
2024-02-08T07:52:05.902Z,11.52
2024-02-08T07:55:43.446Z,11.00
2024-02-08T07:58:49.536Z,11.22
2024-02-08T08:01:51.647Z,11.14
2024-02-08T08:04:54.679Z,11.46
2024-02-08T08:08:01.152Z,11.88
2024-02-08T08:11:08.037Z,12.02
2024-02-08T08:14:10.912Z,12.33
2024-02-08T08:17:32.542Z,12.34
2024-02-08T08:20:52.800Z,11.81
2024-02-08T08:24:01.816Z,12.05
2024-02-08T08:27:08.429Z,12.06
2024-02-08T08:30:11.080Z,12.00
2024-02-08T08:33:33.972Z,12.47
2024-02-08T08:36:36.603Z,12.08
2024-02-08T08:39:57.024Z,12.44
2024-02-08T08:42:59.327Z,12.25
2024-02-08T08:46:01.746Z,12.94
2024-02-08T08:49:05.403Z,14.14
2024-02-08T08:52:08.217Z,14.28
2024-02-08T08:55:18.515Z,14.80
2024-02-08T08:58:23.918Z,13.45
2024-02-08T09:01:26.270Z,13.85
2024-02-08T09:04:34.261Z,14.61
2024-02-08T09:07:39.293Z,15.55
2024-02-08T09:10:43.916Z,17.44
2024-02-08T09:13:47.434Z,18.12
2024-02-08T09:16:53.839Z,18.82
2024-02-08T09:20:00.848Z,18.92
2024-02-08T09:23:14.355Z,17.98
2024-02-08T09:26:16.388Z,17.63
2024-02-08T09:29:40.037Z,17.93
2024-02-08T09:32:45.334Z,19.29
2024-02-08T09:35:48.488Z,22.26
2024-02-08T09:38:52.571Z,24.91
2024-02-08T09:41:54.678Z,26.94
2024-02-08T09:45:19.789Z,26.75
2024-02-08T09:48:28.154Z,28.07
2024-02-08T09:51:36.492Z,30.06
2024-02-08T09:54:38.611Z,27.84
2024-02-08T09:57:47.791Z,28.26
2024-02-08T10:00:59.383Z,28.37
2024-02-08T10:04:09.150Z,27.41
2024-02-08T10:07:18.271Z,28.72
2024-02-08T10:10:21.593Z,29.98
2024-02-08T10:13:31.855Z,30.07
2024-02-08T10:16:49.350Z,32.73
2024-02-08T10:20:12.678Z,33.16
2024-02-08T10:23:37.158Z,31.67
2024-02-08T10:26:40.592Z,34.00
2024-02-08T10:29:45.355Z,30.61
2024-02-08T10:32:53.502Z,33.68
2024-02-08T10:36:08.751Z,31.09
2024-02-08T10:39:25.603Z,30.77
2024-02-08T10:42:39.295Z,31.03
2024-02-08T10:45:45.662Z,30.72
2024-02-08T10:48:51.027Z,28.51
2024-02-08T10:52:02.105Z,30.64
2024-02-08T10:55:19.815Z,29.83
2024-02-08T10:58:50.638Z,30.22
2024-02-08T11:01:52.831Z,28.67
2024-02-08T11:05:14.287Z,29.68
2024-02-08T11:08:25.865Z,30.60
2024-02-08T11:11:31.972Z,30.38
2024-02-08T11:14:44.030Z,28.19
2024-02-08T11:17:53.413Z,27.69
2024-02-08T11:21:05.120Z,28.19
2024-02-08T11:24:07.392Z,29.83
2024-02-08T11:27:14.560Z,30.21
2024-02-08T11:30:33.449Z,29.33
2024-02-08T11:33:43.661Z,31.12
2024-02-08T11:36:53.430Z,30.46
2024-02-08T11:40:10.877Z,29.54
2024-02-08T11:43:25.904Z,29.66
2024-02-08T11:46:39.028Z,29.99
2024-02-08T11:49:54.147Z,29.98
2024-02-08T11:52:59.677Z,30.23
2024-02-08T11:56:03.334Z,31.68
2024-02-08T11:59:08.771Z,32.60
2024-02-08T12:02:11.097Z,30.52
2024-02-08T12:05:17.162Z,30.17
2024-02-08T12:08:18.962Z,30.48
2024-02-08T12:11:23.753Z,30.14
2024-02-08T12:14:28.857Z,31.24
2024-02-08T12:17:30.823Z,30.90
2024-02-08T12:20:33.312Z,30.04
2024-02-08T12:23:36.748Z,31.15
2024-02-08T12:26:40.052Z,30.87
2024-02-08T12:29:52.018Z,29.33
2024-02-08T12:32:55.557Z,30.54
2024-02-08T12:35:59.745Z,32.00
2024-02-08T12:39:02.809Z,31.98
2024-02-08T12:42:06.368Z,29.97
2024-02-08T12:45:14.444Z,29.66
2024-02-08T12:48:18.168Z,30.42
2024-02-08T12:51:21.064Z,29.87
2024-02-08T12:54:26.187Z,29.89
2024-02-08T12:57:28.720Z,29.01
2024-02-08T13:00:39.033Z,28.92
2024-02-08T13:03:40.829Z,28.54
2024-02-08T13:06:43.206Z,30.45
2024-02-08T13:09:46.628Z,29.71
2024-02-08T13:12:58.608Z,28.17
2024-02-08T13:16:07.695Z,29.45
2024-02-08T13:19:15.270Z,27.98
2024-02-08T13:22:25.119Z,26.74
2024-02-08T13:25:29.819Z,24.32
2024-02-08T13:28:34.111Z,24.56
2024-02-08T13:31:39.497Z,23.72
2024-02-08T13:34:41.950Z,21.71
2024-02-08T13:37:44.006Z,21.20
2024-02-08T13:40:46.747Z,19.76
2024-02-08T13:43:50.339Z,20.21
2024-02-08T13:46:52.918Z,19.47
2024-02-08T13:49:56.241Z,19.54
2024-02-08T13:52:58.427Z,19.04
2024-02-08T13:56:00.162Z,19.44
2024-02-08T13:59:02.027Z,18.71
2024-02-08T14:02:04.508Z,18.19
2024-02-08T14:05:18.012Z,18.63
2024-02-08T14:08:19.949Z,18.37
2024-02-08T14:11:26.641Z,18.48
2024-02-08T14:14:41.514Z,17.88
2024-02-08T14:17:55.410Z,17.81
2024-02-08T14:20:59.401Z,18.24
2024-02-08T14:24:03.521Z,18.65
2024-02-08T14:27:07.017Z,19.98
2024-02-08T14:30:09.334Z,20.88
2024-02-08T14:33:17.975Z,19.48
2024-02-08T14:36:20.425Z,18.38
2024-02-08T14:39:29.236Z,18.08
2024-02-08T14:42:38.534Z,17.22
2024-02-08T14:45:40.386Z,16.82
2024-02-08T14:48:42.160Z,16.97
2024-02-08T14:51:50.139Z,17.58
2024-02-08T14:54:56.102Z,19.04
2024-02-08T14:58:00.822Z,18.82
2024-02-08T15:01:09.802Z,19.62
2024-02-08T15:04:23.217Z,18.57
2024-02-08T15:07:43.907Z,18.17
2024-02-08T15:10:45.845Z,17.13
2024-02-08T15:13:48.171Z,16.67
2024-02-08T15:16:50.423Z,16.19
2024-02-08T15:19:56.511Z,16.16
2024-02-08T15:23:11.196Z,15.88
2024-02-08T15:26:14.846Z,15.69
2024-02-08T15:29:31.930Z,15.45
2024-02-08T15:32:47.832Z,15.13
2024-02-08T15:36:00.917Z,14.93
2024-02-08T15:39:22.635Z,14.74
2024-02-08T15:42:34.145Z,14.60
2024-02-08T15:45:36.190Z,14.45
2024-02-08T15:48:46.038Z,14.19
2024-02-08T15:51:50.949Z,14.15
2024-02-08T15:55:00.375Z,13.84
2024-02-08T15:58:18.684Z,13.60
2024-02-08T16:01:42.454Z,13.46
2024-02-08T16:04:44.350Z,13.41
2024-02-08T16:07:58.359Z,13.26
2024-02-08T16:11:10.260Z,12.89
2024-02-08T16:14:17.707Z,12.61
2024-02-08T16:17:38.383Z,12.36
2024-02-08T16:20:46.846Z,12.44
2024-02-08T16:23:49.514Z,12.28
2024-02-08T16:26:58.126Z,11.91
2024-02-08T16:30:00.673Z,12.01
2024-02-08T16:33:10.374Z,11.94
2024-02-08T16:36:30.970Z,11.83
2024-02-08T16:39:44.247Z,11.75
2024-02-08T16:42:48.978Z,11.66
2024-02-08T16:45:57.687Z,11.70
2024-02-08T16:49:05.441Z,11.93
2024-02-08T16:52:20.701Z,11.87
2024-02-08T16:55:23.988Z,11.93
2024-02-08T16:58:33.279Z,11.90
2024-02-08T17:01:41.670Z,11.85
2024-02-08T17:04:50.794Z,11.69
2024-02-08T17:07:53.355Z,11.53
2024-02-08T17:11:02.628Z,11.23
2024-02-08T17:14:05.062Z,11.21
2024-02-08T17:17:23.118Z,11.18
2024-02-08T17:20:39.170Z,11.18
2024-02-08T17:23:54.767Z,11.05
2024-02-08T17:27:20.093Z,11.05
2024-02-08T17:30:44.819Z,11.06
2024-02-08T17:33:51.272Z,11.25
2024-02-08T17:36:55.372Z,11.24
2024-02-08T17:39:58.130Z,11.13
2024-02-08T17:43:10.451Z,11.17
2024-02-08T17:46:12.667Z,11.17
2024-02-08T17:49:20.708Z,11.26
2024-02-08T17:52:24.903Z,11.24
2024-02-08T17:55:34.813Z,11.18
2024-02-08T17:58:37.148Z,11.12
2024-02-08T18:01:56.160Z,11.33
2024-02-08T18:05:09.929Z,11.35
2024-02-08T18:08:11.890Z,11.44
2024-02-08T18:11:17.541Z,11.47
2024-02-08T18:14:19.557Z,11.50
2024-02-08T18:17:25.555Z,11.47
2024-02-08T18:20:31.516Z,11.28
2024-02-08T18:23:36.873Z,11.19
2024-02-08T18:26:38.625Z,11.10
2024-02-08T18:29:46.180Z,11.00
2024-02-08T18:32:48.724Z,10.98
2024-02-08T18:35:50.533Z,10.91
2024-02-08T18:38:53.986Z,10.93
2024-02-08T18:41:59.327Z,10.92
2024-02-08T18:45:08.456Z,10.84
2024-02-08T18:48:12.842Z,11.03
2024-02-08T18:51:17.177Z,11.07
2024-02-08T18:54:30.094Z,11.02
2024-02-08T18:57:31.964Z,11.14
2024-02-08T19:00:34.983Z,10.82
2024-02-08T19:03:38.463Z,10.84
2024-02-08T19:06:40.860Z,10.64
2024-02-08T19:09:44.676Z,10.52
2024-02-08T19:12:52.694Z,10.50
2024-02-08T19:16:02.115Z,10.55
2024-02-08T19:19:04.127Z,10.34
2024-02-08T19:22:13.752Z,10.27
2024-02-08T19:25:20.405Z,10.15
2024-02-08T19:28:25.944Z,10.14
2024-02-08T19:31:38.477Z,10.20
2024-02-08T19:34:41.379Z,10.11
2024-02-08T19:37:43.472Z,10.09
2024-02-08T19:40:45.437Z,10.10
2024-02-08T19:43:47.267Z,9.97
2024-02-08T19:46:57.307Z,9.99
2024-02-08T19:50:10.813Z,10.00
2024-02-08T19:53:16.130Z,10.10
2024-02-08T19:56:19.913Z,10.27
2024-02-08T19:59:28.404Z,10.16
2024-02-08T20:02:35.679Z,10.13
2024-02-08T20:05:38.517Z,10.30
2024-02-08T20:08:40.345Z,10.10
2024-02-08T20:11:43.039Z,10.13
2024-02-08T20:14:44.907Z,10.04
2024-02-08T20:17:50.971Z,10.04
2024-02-08T20:20:57.874Z,9.96
2024-02-08T20:24:01.486Z,10.09
2024-02-08T20:27:08.507Z,10.14
2024-02-08T20:30:22.351Z,10.13
2024-02-08T20:33:24.455Z,9.84
2024-02-08T20:36:26.442Z,9.59
2024-02-08T20:39:34.620Z,9.54
2024-02-08T20:42:36.768Z,9.36
2024-02-08T20:45:39.166Z,9.26
2024-02-08T20:48:41.263Z,9.21
2024-02-08T20:51:44.588Z,9.07
2024-02-08T20:54:50.209Z,8.88
2024-02-08T20:57:53.992Z,9.05
2024-02-08T21:00:56.538Z,8.97
2024-02-08T21:03:58.496Z,9.05
2024-02-08T21:07:00.238Z,9.15
2024-02-08T21:10:02.024Z,9.23
2024-02-08T21:13:03.941Z,9.25
2024-02-08T21:16:05.983Z,9.37
2024-02-08T21:19:10.465Z,9.25
2024-02-08T21:22:13.704Z,9.32
2024-02-08T21:25:20.274Z,9.24
2024-02-08T21:28:26.607Z,9.25
2024-02-08T21:31:28.556Z,9.24
2024-02-08T21:34:30.409Z,9.16
2024-02-08T21:37:32.417Z,9.11
2024-02-08T21:40:35.943Z,9.14
2024-02-08T21:43:39.230Z,9.50
2024-02-08T21:46:42.675Z,9.58
2024-02-08T21:49:44.463Z,9.70
2024-02-08T21:52:46.191Z,9.62
2024-02-08T21:55:47.930Z,9.75
2024-02-08T21:58:49.739Z,9.53
2024-02-08T22:01:52.639Z,9.52
2024-02-08T22:04:54.568Z,9.50
2024-02-08T22:07:58.843Z,9.48
2024-02-08T22:11:00.774Z,9.57
2024-02-08T22:14:02.541Z,9.63
2024-02-08T22:17:09.993Z,9.58
2024-02-08T22:20:13.591Z,9.56
2024-02-08T22:23:15.605Z,9.65
2024-02-08T22:26:18.283Z,9.64
2024-02-08T22:29:20.536Z,9.55
2024-02-08T22:32:22.536Z,9.87
2024-02-08T22:35:25.548Z,9.85
2024-02-08T22:38:28.892Z,9.93
2024-02-08T22:41:31.669Z,10.02
2024-02-08T22:44:33.518Z,10.12
2024-02-08T22:47:35.722Z,10.23
2024-02-08T22:50:37.657Z,10.10
2024-02-08T22:53:40.150Z,10.13
2024-02-08T22:56:42.467Z,10.08
2024-02-08T22:59:49.876Z,10.33
2024-02-08T23:03:19.855Z,10.22
2024-02-08T23:06:21.758Z,10.12
2024-02-08T23:09:28.843Z,10.27
2024-02-08T23:12:31.247Z,10.18
2024-02-08T23:15:33.002Z,9.77
2024-02-08T23:18:35.263Z,9.88
2024-02-08T23:21:40.553Z,9.84
2024-02-08T23:24:43.136Z,9.96
2024-02-08T23:27:49.074Z,10.04
2024-02-08T23:30:51.024Z,9.87
2024-02-08T23:33:52.907Z,9.92
2024-02-08T23:36:56.204Z,9.85
2024-02-08T23:39:58.468Z,9.78
2024-02-08T23:43:01.388Z,9.78
2024-02-08T23:46:04.251Z,9.94
2024-02-08T23:49:06.318Z,9.95
2024-02-08T23:52:08.532Z,9.94
2024-02-08T23:55:10.993Z,9.71
2024-02-08T23:58:15.834Z,9.80
